createdAt,value
2023-02-13T00:00:12.706Z,30.23
2023-02-13T00:01:44.165Z,32.45
2023-02-13T00:03:15.554Z,32.22
2023-02-13T00:04:46.984Z,30.88
2023-02-13T00:06:18.326Z,31.83
2023-02-13T00:07:50.080Z,33.22
2023-02-13T00:09:22.467Z,34.18
2023-02-13T00:10:53.814Z,35.34
2023-02-13T00:12:25.336Z,35.47
2023-02-13T00:13:56.772Z,35.11
2023-02-13T00:15:28.105Z,32.93
2023-02-13T00:16:59.557Z,33.78
2023-02-13T00:18:31.247Z,37.54
2023-02-13T00:20:02.834Z,36.77
2023-02-13T00:21:34.502Z,34.79
2023-02-13T00:23:05.884Z,37.97
2023-02-13T00:24:37.297Z,36.17
2023-02-13T00:26:08.548Z,36.21
2023-02-13T00:27:40.487Z,34.96
2023-02-13T00:29:12.013Z,37.51
2023-02-13T00:30:43.538Z,35.35
2023-02-13T00:32:15.129Z,35.46
2023-02-13T00:33:46.809Z,35.46
2023-02-13T00:35:18.258Z,38.12
2023-02-13T00:36:49.620Z,34.87
2023-02-13T00:38:25.982Z,35.38
2023-02-13T00:39:57.396Z,35.30
2023-02-13T00:41:28.802Z,33.97
2023-02-13T00:43:00.385Z,32.85
2023-02-13T00:44:31.837Z,34.88
2023-02-13T00:46:03.236Z,34.01
2023-02-13T00:47:35.137Z,32.35
2023-02-13T00:49:06.644Z,32.04
2023-02-13T00:50:37.936Z,34.01
2023-02-13T00:52:09.604Z,34.50
2023-02-13T00:53:40.920Z,32.38
2023-02-13T00:55:12.746Z,33.09
2023-02-13T00:56:44.414Z,31.69
2023-02-13T00:58:15.715Z,34.19
2023-02-13T00:59:47.330Z,32.78
2023-02-13T01:01:18.720Z,31.66
2023-02-13T01:02:50.120Z,31.22
2023-02-13T01:04:21.458Z,30.97
2023-02-13T01:05:52.826Z,28.80
2023-02-13T01:07:24.445Z,27.14
2023-02-13T01:08:55.931Z,28.48
2023-02-13T01:10:27.345Z,29.92
2023-02-13T01:11:58.715Z,29.32
2023-02-13T01:13:30.074Z,27.53
2023-02-13T01:15:01.527Z,29.05
2023-02-13T01:16:32.890Z,28.80
2023-02-13T01:18:04.276Z,27.37
2023-02-13T01:19:35.568Z,25.65
2023-02-13T01:21:07.281Z,25.22
2023-02-13T01:22:38.686Z,27.98
2023-02-13T01:24:10.030Z,28.11
2023-02-13T01:25:41.453Z,28.21
2023-02-13T01:27:12.854Z,26.52
2023-02-13T01:28:44.152Z,28.70
2023-02-13T01:30:15.457Z,30.56
2023-02-13T01:31:47.028Z,24.95
2023-02-13T01:33:28.493Z,23.26
2023-02-13T01:34:59.864Z,24.33
2023-02-13T01:36:31.387Z,23.51
2023-02-13T01:38:02.901Z,23.51
2023-02-13T01:39:34.359Z,22.31
2023-02-13T01:41:05.867Z,22.22
2023-02-13T01:42:37.219Z,21.85
2023-02-13T01:44:08.633Z,24.37
2023-02-13T01:45:39.899Z,22.31
2023-02-13T01:47:11.704Z,21.97
2023-02-13T01:48:43.062Z,20.17
2023-02-13T01:50:14.406Z,20.08
2023-02-13T01:51:45.968Z,19.76
2023-02-13T01:53:17.284Z,18.24
2023-02-13T01:54:48.740Z,20.12
2023-02-13T01:56:20.093Z,17.53
2023-02-13T01:57:51.366Z,17.32
2023-02-13T01:59:22.690Z,18.48
2023-02-13T02:00:54.215Z,15.79
2023-02-13T02:02:25.700Z,15.16
2023-02-13T02:03:57.188Z,14.76
2023-02-13T02:05:28.439Z,15.10
2023-02-13T02:06:59.726Z,15.24
2023-02-13T02:08:31.204Z,15.48
2023-02-13T02:10:02.617Z,14.71
2023-02-13T02:11:33.971Z,14.57
2023-02-13T02:13:05.364Z,13.67
2023-02-13T02:14:36.836Z,13.07
2023-02-13T02:16:08.108Z,12.76
2023-02-13T02:17:39.417Z,11.90
2023-02-13T02:19:10.953Z,11.17
2023-02-13T02:20:42.336Z,10.38
2023-02-13T02:22:13.633Z,10.95
2023-02-13T02:23:45.250Z,9.60
2023-02-13T02:25:16.632Z,10.71
2023-02-13T02:26:48.253Z,9.80
2023-02-13T02:28:19.909Z,8.91
2023-02-13T02:29:56.404Z,8.77
2023-02-13T02:31:27.779Z,8.72
2023-02-13T02:32:59.241Z,8.16
2023-02-13T02:34:30.622Z,8.56
2023-02-13T02:36:02.151Z,8.37
2023-02-13T02:37:33.678Z,7.75
2023-02-13T02:39:05.077Z,8.49
2023-02-13T02:40:36.519Z,8.71
2023-02-13T02:42:08.484Z,8.82
2023-02-13T02:43:39.729Z,8.46
2023-02-13T02:45:11.151Z,8.45
2023-02-13T02:46:42.536Z,8.69
2023-02-13T02:48:13.858Z,8.52
2023-02-13T02:49:45.542Z,7.83
2023-02-13T02:51:17.061Z,8.01
2023-02-13T02:52:48.352Z,8.58
2023-02-13T02:54:19.738Z,7.96
2023-02-13T02:55:51.044Z,7.85
2023-02-13T02:57:22.453Z,7.72
2023-02-13T02:58:53.866Z,8.23
2023-02-13T03:00:25.491Z,8.25
2023-02-13T03:01:56.823Z,8.74
2023-02-13T03:03:28.426Z,8.20
2023-02-13T03:04:59.742Z,8.33
2023-02-13T03:06:31.383Z,7.85
2023-02-13T03:08:02.707Z,8.28
2023-02-13T03:09:34.097Z,8.56
2023-02-13T03:11:05.480Z,8.62
2023-02-13T03:12:36.756Z,9.37
2023-02-13T03:14:08.007Z,9.40
2023-02-13T03:15:39.459Z,7.83
2023-02-13T03:17:10.739Z,8.75
2023-02-13T03:18:42.485Z,7.45
2023-02-13T03:20:13.771Z,8.21
2023-02-13T03:21:45.387Z,8.09
2023-02-13T03:23:16.667Z,7.58
2023-02-13T03:24:47.967Z,9.01
2023-02-13T03:26:19.373Z,7.00
2023-02-13T03:27:50.660Z,6.67
2023-02-13T03:29:22.288Z,6.65
2023-02-13T03:30:53.759Z,6.00
2023-02-13T03:32:25.093Z,5.94
2023-02-13T03:33:56.481Z,5.89
2023-02-13T03:35:27.974Z,5.55
2023-02-13T03:36:59.331Z,5.34
2023-02-13T03:38:30.700Z,5.49
2023-02-13T03:40:02.242Z,6.22
2023-02-13T03:41:33.623Z,5.48
2023-02-13T03:43:05.004Z,6.03
2023-02-13T03:44:36.240Z,6.31
2023-02-13T03:46:07.514Z,6.04
2023-02-13T03:47:38.932Z,5.85
2023-02-13T03:49:10.208Z,6.17
2023-02-13T03:50:41.581Z,6.13
2023-02-13T03:52:12.824Z,5.77
2023-02-13T03:53:44.154Z,5.58
2023-02-13T03:55:15.564Z,6.16
2023-02-13T03:56:47.192Z,5.95
2023-02-13T03:58:18.615Z,6.15
2023-02-13T03:59:49.899Z,6.03
2023-02-13T04:01:21.615Z,6.34
2023-02-13T04:02:53.234Z,6.83
2023-02-13T04:04:24.734Z,6.89
2023-02-13T04:05:56.032Z,7.75
2023-02-13T04:07:27.415Z,7.35
2023-02-13T04:08:58.839Z,9.08
2023-02-13T04:10:30.338Z,7.32
2023-02-13T04:12:01.797Z,7.17
2023-02-13T04:13:33.087Z,6.47
2023-02-13T04:15:04.613Z,8.30
2023-02-13T04:16:35.988Z,8.38
2023-02-13T04:18:10.326Z,7.66
2023-02-13T04:19:41.941Z,8.08
2023-02-13T04:21:13.351Z,8.36
2023-02-13T04:22:44.885Z,7.89
2023-02-13T04:24:16.427Z,8.16
2023-02-13T04:25:48.030Z,9.20
2023-02-13T04:27:19.571Z,8.80
2023-02-13T04:28:51.103Z,8.52
2023-02-13T04:30:22.570Z,8.11
2023-02-13T04:31:54.100Z,8.70
2023-02-13T04:33:25.619Z,8.42
2023-02-13T04:34:57.048Z,8.19
2023-02-13T04:36:28.455Z,8.50
2023-02-13T04:37:59.745Z,9.18
2023-02-13T04:39:31.043Z,8.41
2023-02-13T04:41:02.791Z,8.27
2023-02-13T04:42:34.671Z,10.65
2023-02-13T04:44:06.191Z,9.90
2023-02-13T04:45:37.751Z,8.99
2023-02-13T04:47:09.237Z,9.53
2023-02-13T04:48:40.653Z,9.40
2023-02-13T04:50:12.076Z,9.26
2023-02-13T04:51:43.453Z,8.69
2023-02-13T04:53:14.764Z,8.78
2023-02-13T04:54:46.093Z,10.19
2023-02-13T04:56:19.627Z,9.17
2023-02-13T04:57:51.565Z,9.42
2023-02-13T04:59:23.213Z,8.53
2023-02-13T05:00:55.009Z,9.00
2023-02-13T05:02:26.536Z,9.06
2023-02-13T05:03:57.990Z,9.58
2023-02-13T05:05:29.477Z,9.75
2023-02-13T05:07:00.776Z,9.17
2023-02-13T05:08:32.250Z,8.80
2023-02-13T05:10:03.565Z,9.29
2023-02-13T05:11:34.833Z,9.34
2023-02-13T05:13:06.030Z,9.20
2023-02-13T05:14:37.391Z,8.83
2023-02-13T05:16:08.834Z,9.53
2023-02-13T05:17:40.179Z,8.58
2023-02-13T05:19:11.482Z,9.33
2023-02-13T05:20:42.774Z,9.38
2023-02-13T05:22:14.192Z,10.10
2023-02-13T05:23:45.827Z,10.62
2023-02-13T05:25:17.388Z,9.81
2023-02-13T05:26:48.834Z,9.52
2023-02-13T05:28:20.223Z,9.31
2023-02-13T05:29:51.809Z,9.62
2023-02-13T05:31:23.245Z,9.41
2023-02-13T05:32:54.914Z,10.37
2023-02-13T05:34:27.016Z,9.44
2023-02-13T05:35:58.308Z,10.06
2023-02-13T05:37:29.612Z,9.88
2023-02-13T05:39:01.326Z,10.18
2023-02-13T05:40:32.614Z,11.10
2023-02-13T05:42:03.946Z,11.05
2023-02-13T05:43:35.287Z,10.67
2023-02-13T05:45:06.614Z,11.66
2023-02-13T05:46:39.190Z,13.92
2023-02-13T05:48:11.121Z,11.28
2023-02-13T05:49:42.411Z,12.51
2023-02-13T05:51:13.962Z,14.06
2023-02-13T05:52:45.265Z,12.74
2023-02-13T05:54:16.704Z,13.80
2023-02-13T05:55:48.082Z,15.23
2023-02-13T05:57:19.998Z,15.58
2023-02-13T05:58:51.550Z,13.48
2023-02-13T06:00:22.892Z,13.80
2023-02-13T06:01:54.257Z,12.65
2023-02-13T06:03:25.797Z,12.20
2023-02-13T06:05:30.323Z,11.34
2023-02-13T06:07:01.925Z,12.89
2023-02-13T06:08:33.209Z,14.30
2023-02-13T06:10:10.089Z,16.47
2023-02-13T06:11:41.956Z,12.84
2023-02-13T06:13:13.706Z,13.66
2023-02-13T06:14:45.073Z,15.39
2023-02-13T06:16:17.552Z,12.69
2023-02-13T06:17:49.078Z,14.12
2023-02-13T06:19:20.463Z,13.16
2023-02-13T06:20:51.868Z,11.99
2023-02-13T06:22:23.755Z,11.99
2023-02-13T06:23:55.269Z,11.08
2023-02-13T06:25:26.599Z,12.88
2023-02-13T06:26:59.068Z,11.22
2023-02-13T06:28:30.943Z,10.40
2023-02-13T06:30:02.646Z,11.51
2023-02-13T06:31:38.319Z,12.56
2023-02-13T06:33:10.121Z,12.79
2023-02-13T06:34:41.933Z,13.31
2023-02-13T06:36:14.455Z,13.43
2023-02-13T06:37:46.154Z,14.09
2023-02-13T06:39:22.484Z,15.88
2023-02-13T06:40:54.131Z,17.24
2023-02-13T06:42:25.485Z,18.75
2023-02-13T06:43:56.901Z,20.72
2023-02-13T06:45:28.179Z,22.63
2023-02-13T06:46:59.644Z,20.08
2023-02-13T06:48:31.088Z,19.87
2023-02-13T06:50:07.491Z,16.82
2023-02-13T06:51:38.794Z,16.18
2023-02-13T06:53:10.072Z,17.00
2023-02-13T06:54:47.803Z,14.85
2023-02-13T06:56:19.402Z,18.19
2023-02-13T06:57:50.721Z,19.50
2023-02-13T06:59:21.990Z,16.52
2023-02-13T07:00:53.441Z,27.04
2023-02-13T07:02:24.950Z,28.74
2023-02-13T07:03:56.704Z,27.84
2023-02-13T07:05:28.300Z,26.69
2023-02-13T07:06:59.755Z,24.00
2023-02-13T07:08:31.459Z,23.64
2023-02-13T07:10:03.881Z,23.87
2023-02-13T07:11:35.738Z,27.52
2023-02-13T07:13:07.050Z,18.85
2023-02-13T07:14:38.409Z,19.34
2023-02-13T07:16:09.735Z,19.88
2023-02-13T07:17:41.659Z,17.07
2023-02-13T07:19:13.118Z,19.61
2023-02-13T07:20:44.577Z,17.77
2023-02-13T07:22:15.819Z,17.04
2023-02-13T07:23:47.112Z,14.76
2023-02-13T07:25:18.398Z,14.99
2023-02-13T07:26:49.681Z,15.00
2023-02-13T07:28:20.981Z,15.48
2023-02-13T07:29:52.455Z,14.86
2023-02-13T07:31:23.969Z,13.09
2023-02-13T07:32:55.501Z,14.31
2023-02-13T07:34:27.125Z,13.20
2023-02-13T07:35:58.753Z,13.58
2023-02-13T07:37:30.084Z,14.28
2023-02-13T07:39:01.379Z,15.98
2023-02-13T07:40:32.634Z,15.38
2023-02-13T07:42:03.973Z,14.66
2023-02-13T07:43:40.570Z,15.14
2023-02-13T07:45:11.896Z,13.82
2023-02-13T07:46:43.431Z,14.07
2023-02-13T07:48:14.972Z,15.12
2023-02-13T07:49:47.447Z,14.10
2023-02-13T07:51:18.918Z,14.40
2023-02-13T07:52:50.413Z,14.69
2023-02-13T07:54:21.684Z,14.00
2023-02-13T07:55:53.056Z,13.73
2023-02-13T07:57:29.478Z,13.79
2023-02-13T07:59:01.031Z,14.16
2023-02-13T08:00:32.506Z,12.93
2023-02-13T08:02:04.328Z,14.03
2023-02-13T08:03:35.717Z,13.08
2023-02-13T08:05:07.041Z,13.62
2023-02-13T08:06:38.454Z,13.46
2023-02-13T08:08:09.730Z,14.60
2023-02-13T08:09:41.569Z,14.28
2023-02-13T08:11:12.814Z,13.97
2023-02-13T08:12:44.360Z,13.29
2023-02-13T08:14:15.897Z,13.76
2023-02-13T08:15:47.325Z,14.40
2023-02-13T08:17:18.752Z,14.06
2023-02-13T08:18:50.239Z,14.57
2023-02-13T08:20:23.399Z,13.35
2023-02-13T08:21:55.308Z,13.93
2023-02-13T08:23:26.679Z,14.22
2023-02-13T08:24:58.071Z,13.90
2023-02-13T08:26:29.508Z,12.68
2023-02-13T08:28:00.836Z,12.59
2023-02-13T08:29:32.377Z,14.31
2023-02-13T08:31:03.877Z,13.36
2023-02-13T08:32:42.062Z,15.69
2023-02-13T08:34:23.405Z,13.60
2023-02-13T08:35:55.080Z,13.64
2023-02-13T08:37:26.481Z,15.00
2023-02-13T08:39:03.734Z,15.77
2023-02-13T08:40:35.276Z,14.67
2023-02-13T08:42:06.516Z,15.41
2023-02-13T08:43:38.207Z,14.04
2023-02-13T08:45:09.573Z,13.97
2023-02-13T08:46:41.097Z,13.55
2023-02-13T08:48:12.737Z,13.72
2023-02-13T08:49:44.199Z,14.38
2023-02-13T08:51:15.666Z,13.98
2023-02-13T08:52:47.081Z,14.76
2023-02-13T08:54:18.517Z,14.06
2023-02-13T08:55:50.179Z,13.78
2023-02-13T08:57:21.744Z,13.82
2023-02-13T08:58:53.339Z,13.61
2023-02-13T09:00:24.736Z,16.63
2023-02-13T09:01:56.110Z,13.56
2023-02-13T09:03:27.638Z,14.12
2023-02-13T09:04:59.142Z,12.62
2023-02-13T09:06:30.502Z,12.73
2023-02-13T09:08:06.935Z,13.34
2023-02-13T09:09:38.540Z,13.34
2023-02-13T09:11:10.286Z,13.64
2023-02-13T09:12:41.792Z,14.63
2023-02-13T09:14:13.783Z,13.52
2023-02-13T09:15:45.409Z,14.01
2023-02-13T09:17:16.827Z,15.40
2023-02-13T09:18:48.589Z,12.94
2023-02-13T09:20:20.441Z,13.90
2023-02-13T09:21:51.822Z,15.02
2023-02-13T09:23:23.462Z,13.25
2023-02-13T09:24:55.285Z,12.84
2023-02-13T09:26:26.928Z,13.95
2023-02-13T09:28:03.297Z,13.98
2023-02-13T09:29:34.697Z,13.96
2023-02-13T09:31:06.267Z,14.28
2023-02-13T09:32:37.818Z,14.33
2023-02-13T09:34:09.204Z,14.68
2023-02-13T09:35:40.776Z,13.35
2023-02-13T09:37:13.415Z,14.63
2023-02-13T09:38:45.057Z,14.22
2023-02-13T09:40:16.652Z,14.39
2023-02-13T09:41:48.109Z,12.93
2023-02-13T09:43:19.613Z,12.02
2023-02-13T09:44:51.058Z,12.57
2023-02-13T09:46:22.422Z,13.11
2023-02-13T09:47:53.921Z,12.36
2023-02-13T09:49:25.235Z,13.26
2023-02-13T09:50:56.643Z,15.56
2023-02-13T09:52:28.099Z,13.84
2023-02-13T09:53:59.590Z,13.55
2023-02-13T09:55:30.922Z,13.68
2023-02-13T09:57:02.346Z,13.29
2023-02-13T09:58:33.698Z,14.53
2023-02-13T10:00:05.122Z,13.60
2023-02-13T10:01:36.683Z,14.95
2023-02-13T10:03:08.181Z,13.39
2023-02-13T10:04:39.674Z,13.82
2023-02-13T10:06:11.159Z,13.06
2023-02-13T10:07:42.511Z,13.22
2023-02-13T10:09:13.824Z,13.39
2023-02-13T10:10:45.260Z,12.38
2023-02-13T10:12:16.765Z,13.58
2023-02-13T10:13:48.085Z,13.48
2023-02-13T10:15:19.396Z,12.68
2023-02-13T10:16:50.723Z,14.09
2023-02-13T10:18:22.397Z,15.88
2023-02-13T10:19:53.848Z,13.49
2023-02-13T10:21:25.118Z,15.87
2023-02-13T10:22:56.445Z,15.12
2023-02-13T10:24:28.285Z,14.09
2023-02-13T10:26:02.040Z,15.30
2023-02-13T10:27:33.553Z,15.12
2023-02-13T10:29:04.986Z,15.96
2023-02-13T10:30:36.432Z,16.16
2023-02-13T10:32:07.879Z,14.17
2023-02-13T10:33:39.384Z,15.42
2023-02-13T10:35:10.843Z,15.64
2023-02-13T10:36:42.193Z,15.85
2023-02-13T10:38:13.468Z,16.40
2023-02-13T10:39:44.864Z,13.33
2023-02-13T10:41:16.275Z,13.92
2023-02-13T10:42:47.686Z,12.61
2023-02-13T10:44:19.312Z,12.25
2023-02-13T10:45:50.740Z,13.63
2023-02-13T10:47:22.253Z,12.60
2023-02-13T10:48:53.617Z,13.43
2023-02-13T10:50:25.072Z,16.40
2023-02-13T10:51:56.731Z,12.94
2023-02-13T10:53:28.278Z,14.96
2023-02-13T10:55:01.619Z,17.95
2023-02-13T10:56:33.993Z,13.16
2023-02-13T10:58:06.190Z,13.85
2023-02-13T10:59:38.037Z,12.55
2023-02-13T11:01:09.492Z,12.51
2023-02-13T11:02:40.945Z,12.11
2023-02-13T11:04:17.627Z,11.95
2023-02-13T11:06:19.594Z,12.46
2023-02-13T11:09:09.277Z,11.89
2023-02-13T11:10:41.692Z,12.19
2023-02-13T11:12:24.563Z,12.00
2023-02-13T11:13:55.975Z,11.24
2023-02-13T11:15:27.490Z,10.95
2023-02-13T11:16:59.252Z,10.46
2023-02-13T11:18:30.849Z,11.21
2023-02-13T11:20:02.582Z,11.54
2023-02-13T11:21:34.066Z,11.53
2023-02-13T11:23:05.434Z,10.82
2023-02-13T11:24:36.981Z,13.13
2023-02-13T11:26:08.458Z,11.41
2023-02-13T11:27:39.923Z,12.09
2023-02-13T11:29:11.525Z,10.84
2023-02-13T11:30:42.949Z,10.32
2023-02-13T11:32:14.631Z,10.46
2023-02-13T11:33:46.537Z,10.57
2023-02-13T11:35:21.297Z,10.11
2023-02-13T11:36:52.903Z,10.57
2023-02-13T11:38:24.335Z,10.47
2023-02-13T11:39:56.096Z,10.19
2023-02-13T11:41:27.499Z,10.44
2023-02-13T11:42:59.877Z,10.93
2023-02-13T11:44:31.356Z,10.95
2023-02-13T11:46:02.950Z,10.76
2023-02-13T11:47:34.431Z,13.26
2023-02-13T11:49:11.068Z,10.14
2023-02-13T11:50:42.684Z,10.25
2023-02-13T11:52:14.209Z,11.62
2023-02-13T11:53:45.740Z,10.01
2023-02-13T11:55:18.050Z,10.21
2023-02-13T11:57:04.004Z,11.12
2023-02-13T11:58:36.509Z,11.29
2023-02-13T12:00:08.130Z,9.93
2023-02-13T12:01:39.706Z,10.38
2023-02-13T12:03:11.443Z,10.66
2023-02-13T12:04:43.118Z,10.39
2023-02-13T12:06:14.522Z,10.42
2023-02-13T12:07:46.467Z,10.24
2023-02-13T12:09:18.171Z,10.85
2023-02-13T12:10:49.603Z,9.80
2023-02-13T12:12:24.686Z,9.89
2023-02-13T12:13:56.220Z,10.38
2023-02-13T12:15:29.718Z,10.21
2023-02-13T12:17:02.284Z,9.67
2023-02-13T12:18:41.458Z,8.62
2023-02-13T12:20:13.228Z,9.55
2023-02-13T12:21:45.097Z,9.48
2023-02-13T12:23:16.798Z,9.19
2023-02-13T12:24:53.279Z,8.83
2023-02-13T12:26:24.672Z,9.68
2023-02-13T12:27:56.106Z,10.51
2023-02-13T12:29:27.848Z,9.48
2023-02-13T12:30:59.773Z,9.87
2023-02-13T12:32:31.518Z,9.77
2023-02-13T12:34:02.928Z,10.62
2023-02-13T12:35:34.312Z,9.84
2023-02-13T12:37:05.943Z,11.13
2023-02-13T12:38:37.526Z,9.28
2023-02-13T12:40:19.108Z,10.43
2023-02-13T12:41:50.824Z,9.59
2023-02-13T12:43:22.681Z,9.87
2023-02-13T12:44:54.244Z,9.11
2023-02-13T12:46:25.797Z,10.56
2023-02-13T12:47:57.561Z,8.57
2023-02-13T12:49:29.008Z,8.38
2023-02-13T12:51:00.690Z,9.48
2023-02-13T12:52:32.128Z,10.49
2023-02-13T12:54:35.370Z,12.51
2023-02-13T12:56:16.903Z,10.11
2023-02-13T12:57:48.423Z,10.00
2023-02-13T12:59:19.912Z,10.18
2023-02-13T13:00:52.170Z,9.84
2023-02-13T13:02:23.707Z,9.65
2023-02-13T13:03:55.274Z,11.27
2023-02-13T13:05:26.717Z,10.31
2023-02-13T13:06:58.211Z,12.83
2023-02-13T13:08:29.778Z,9.10
2023-02-13T13:10:01.265Z,9.00
2023-02-13T13:11:32.744Z,8.71
2023-02-13T13:13:04.189Z,9.38
2023-02-13T13:14:45.826Z,10.42
2023-02-13T13:16:17.491Z,9.28
2023-02-13T13:17:49.413Z,11.17
2023-02-13T13:19:21.374Z,9.48
2023-02-13T13:20:53.119Z,10.59
2023-02-13T13:22:24.772Z,12.40
2023-02-13T13:23:56.319Z,15.05
2023-02-13T13:25:27.860Z,10.93
2023-02-13T13:26:59.333Z,10.50
2023-02-13T13:28:30.929Z,9.97
2023-02-13T13:30:02.588Z,9.33
2023-02-13T13:31:35.697Z,7.73
2023-02-13T13:33:08.165Z,12.71
2023-02-13T13:35:09.683Z,9.90
2023-02-13T13:36:54.805Z,8.58
2023-02-13T13:38:26.223Z,9.08
2023-02-13T13:39:57.687Z,8.48
2023-02-13T13:41:34.418Z,8.14
2023-02-13T13:43:06.298Z,9.58
2023-02-13T13:44:37.996Z,8.12
2023-02-13T13:46:09.421Z,8.34
2023-02-13T13:47:40.864Z,9.55
2023-02-13T13:49:12.420Z,8.26
2023-02-13T13:50:43.882Z,8.96
2023-02-13T13:52:15.384Z,11.20
2023-02-13T13:53:47.123Z,8.34
2023-02-13T13:55:18.598Z,7.95
2023-02-13T13:56:50.009Z,8.52
2023-02-13T13:58:21.776Z,9.14
2023-02-13T13:59:53.213Z,9.15
2023-02-13T14:01:24.815Z,7.71
2023-02-13T14:03:01.348Z,7.32
2023-02-13T14:04:32.921Z,8.42
2023-02-13T14:06:04.266Z,7.94
2023-02-13T14:07:36.734Z,9.13
2023-02-13T14:09:08.124Z,11.57
2023-02-13T14:10:39.519Z,9.62
2023-02-13T14:12:10.930Z,8.54
2023-02-13T14:13:42.329Z,8.60
2023-02-13T14:15:13.720Z,9.69
2023-02-13T14:16:45.278Z,9.47
2023-02-13T14:18:16.667Z,8.90
2023-02-13T14:19:48.220Z,8.28
2023-02-13T14:21:19.631Z,9.11
2023-02-13T14:22:51.072Z,8.74
2023-02-13T14:24:22.470Z,10.08
2023-02-13T14:25:54.677Z,10.69
2023-02-13T14:27:26.067Z,8.41
2023-02-13T14:28:57.446Z,10.66
2023-02-13T14:30:29.206Z,8.19
2023-02-13T14:32:00.763Z,8.16
2023-02-13T14:33:32.386Z,7.69
2023-02-13T14:35:03.864Z,8.50
2023-02-13T14:36:35.463Z,9.43
2023-02-13T14:38:07.092Z,10.24
2023-02-13T14:39:38.498Z,10.15
2023-02-13T14:41:09.827Z,12.09
2023-02-13T14:42:41.411Z,9.18
2023-02-13T14:44:12.998Z,8.25
2023-02-13T14:45:44.686Z,10.68
2023-02-13T14:47:16.095Z,8.96
2023-02-13T14:48:47.455Z,8.14
2023-02-13T14:50:19.149Z,9.22
2023-02-13T14:51:50.728Z,9.84
2023-02-13T14:53:22.115Z,11.34
2023-02-13T14:54:53.765Z,9.32
2023-02-13T14:56:25.406Z,7.70
2023-02-13T14:57:56.856Z,7.51
2023-02-13T14:59:28.237Z,8.68
2023-02-13T15:01:00.305Z,8.04
2023-02-13T15:02:31.839Z,10.73
2023-02-13T15:04:03.229Z,9.43
2023-02-13T15:05:34.910Z,10.44
2023-02-13T15:07:06.498Z,7.88
2023-02-13T15:08:38.022Z,8.15
2023-02-13T15:10:09.356Z,8.08
2023-02-13T15:11:40.660Z,8.82
2023-02-13T15:13:35.280Z,10.17
2023-02-13T15:15:06.790Z,9.83
2023-02-13T15:16:38.756Z,11.51
2023-02-13T15:18:10.323Z,8.89
2023-02-13T15:19:41.826Z,9.85
2023-02-13T15:21:13.187Z,8.62
2023-02-13T15:22:44.622Z,9.33
2023-02-13T15:24:16.200Z,8.18
2023-02-13T15:25:47.849Z,8.79
2023-02-13T15:27:20.405Z,9.49
2023-02-13T15:28:51.781Z,10.57
2023-02-13T15:30:23.304Z,9.93
2023-02-13T15:31:54.957Z,9.56
2023-02-13T15:33:26.402Z,8.22
2023-02-13T15:35:07.696Z,8.30
2023-02-13T15:36:39.154Z,8.96
2023-02-13T15:38:10.589Z,9.10
2023-02-13T15:39:42.306Z,8.39
2023-02-13T15:41:13.773Z,10.44
2023-02-13T15:42:45.153Z,9.17
2023-02-13T15:44:17.719Z,8.60
2023-02-13T15:45:49.135Z,8.51
2023-02-13T15:47:20.514Z,10.00
2023-02-13T15:48:52.025Z,11.89
2023-02-13T15:50:23.425Z,8.41
2023-02-13T15:51:55.056Z,10.32
2023-02-13T15:53:26.686Z,9.06
2023-02-13T15:54:58.228Z,9.05
2023-02-13T15:56:30.086Z,10.08
2023-02-13T15:58:01.990Z,9.10
2023-02-13T15:59:33.733Z,9.53
2023-02-13T16:01:05.177Z,10.01
2023-02-13T16:02:36.655Z,11.09
2023-02-13T16:04:08.489Z,11.94
2023-02-13T16:05:41.250Z,10.67
2023-02-13T16:07:13.046Z,9.56
2023-02-13T16:08:44.393Z,10.62
2023-02-13T16:10:15.997Z,11.62
2023-02-13T16:11:47.448Z,10.02
2023-02-13T16:13:19.239Z,9.60
2023-02-13T16:14:50.766Z,8.49
2023-02-13T16:16:22.214Z,8.47
2023-02-13T16:17:53.772Z,7.75
2023-02-13T16:19:25.387Z,10.49
2023-02-13T16:20:57.205Z,9.70
2023-02-13T16:22:29.133Z,9.11
2023-02-13T16:24:01.534Z,10.37
2023-02-13T16:25:33.171Z,8.88
2023-02-13T16:27:05.038Z,10.07
2023-02-13T16:28:36.813Z,9.98
2023-02-13T16:30:08.536Z,12.31
2023-02-13T16:31:40.296Z,9.28
2023-02-13T16:33:11.930Z,10.37
2023-02-13T16:34:53.316Z,11.71
2023-02-13T16:36:24.837Z,11.14
2023-02-13T16:37:56.340Z,10.99
2023-02-13T16:39:27.804Z,9.71
2023-02-13T16:40:59.623Z,11.74
2023-02-13T16:42:31.373Z,9.50
2023-02-13T16:44:02.802Z,12.11
2023-02-13T16:45:34.230Z,10.14
2023-02-13T16:47:05.583Z,9.80
2023-02-13T16:48:37.153Z,10.78
2023-02-13T16:50:08.489Z,9.72
2023-02-13T16:51:39.958Z,10.21
2023-02-13T16:53:11.321Z,10.68
2023-02-13T16:54:42.712Z,11.58
2023-02-13T16:56:14.084Z,10.07
2023-02-13T16:57:45.631Z,10.70
2023-02-13T16:59:40.387Z,10.72
2023-02-13T17:01:17.164Z,8.85
2023-02-13T17:02:48.625Z,8.75
2023-02-13T17:04:20.082Z,9.29
2023-02-13T17:05:51.531Z,9.64
2023-02-13T17:07:22.851Z,9.74
2023-02-13T17:08:59.528Z,11.13
2023-02-13T17:10:30.839Z,10.44
2023-02-13T17:12:12.158Z,13.44
2023-02-13T17:13:43.805Z,11.40
2023-02-13T17:15:15.153Z,12.00
2023-02-13T17:16:47.664Z,10.99
2023-02-13T17:18:36.601Z,10.48
2023-02-13T17:20:12.315Z,13.41
2023-02-13T17:22:12.700Z,13.86
2023-02-13T17:23:44.277Z,12.35
2023-02-13T17:25:16.154Z,11.81
2023-02-13T17:26:48.007Z,12.61
2023-02-13T17:28:19.530Z,11.35
2023-02-13T17:29:51.024Z,12.94
2023-02-13T17:31:22.511Z,11.26
2023-02-13T17:32:53.922Z,11.70
2023-02-13T17:34:25.660Z,12.96
2023-02-13T17:35:57.123Z,13.58
2023-02-13T17:37:28.639Z,13.02
2023-02-13T17:38:59.910Z,12.26
2023-02-13T17:40:31.474Z,13.81
2023-02-13T17:42:02.772Z,15.58
2023-02-13T17:43:34.328Z,13.79
2023-02-13T17:45:05.734Z,12.08
2023-02-13T17:46:38.326Z,13.03
2023-02-13T17:48:10.066Z,11.88
2023-02-13T17:49:41.794Z,11.06
2023-02-13T17:51:13.144Z,13.92
2023-02-13T17:52:44.476Z,12.42
2023-02-13T17:54:16.135Z,13.90
2023-02-13T17:55:47.433Z,13.67
2023-02-13T17:57:19.184Z,14.03
2023-02-13T17:59:00.604Z,15.32
2023-02-13T18:02:44.079Z,17.29
2023-02-13T18:04:15.606Z,17.65
2023-02-13T18:05:47.230Z,14.84
2023-02-13T18:07:18.639Z,12.70
2023-02-13T18:08:50.385Z,11.88
2023-02-13T18:10:21.691Z,13.20
2023-02-13T18:12:17.360Z,13.82
2023-02-13T18:13:49.046Z,12.35
2023-02-13T18:15:20.942Z,11.61
2023-02-13T18:16:52.328Z,11.14
2023-02-13T18:18:28.678Z,13.10
2023-02-13T18:20:12.887Z,12.78
2023-02-13T18:21:44.461Z,12.95
2023-02-13T18:23:38.792Z,11.70
2023-02-13T18:25:27.626Z,13.75
2023-02-13T18:26:59.360Z,12.53
2023-02-13T18:28:50.717Z,14.05
2023-02-13T18:30:22.135Z,12.83
2023-02-13T18:32:03.522Z,14.20
2023-02-13T18:33:44.027Z,12.40
2023-02-13T18:35:15.442Z,12.57
2023-02-13T18:36:46.939Z,11.81
2023-02-13T18:38:18.317Z,14.20
2023-02-13T18:40:16.558Z,13.61
2023-02-13T18:41:59.200Z,13.46
2023-02-13T18:43:41.334Z,15.52
2023-02-13T18:45:12.831Z,16.50
2023-02-13T18:46:54.443Z,15.63
2023-02-13T18:48:31.265Z,13.73
2023-02-13T18:50:02.696Z,15.54
2023-02-13T18:51:40.043Z,22.14
2023-02-13T18:53:30.295Z,24.08
2023-02-13T18:55:03.170Z,22.07
2023-02-13T18:56:34.648Z,17.77
2023-02-13T18:58:10.443Z,16.65
2023-02-13T18:59:43.236Z,17.01
2023-02-13T19:01:15.960Z,18.39
2023-02-13T19:02:59.032Z,17.87
2023-02-13T19:04:35.741Z,17.22
2023-02-13T19:06:16.294Z,16.31
2023-02-13T19:07:48.084Z,16.79
2023-02-13T19:10:04.031Z,19.53
2023-02-13T19:12:01.597Z,20.24
2023-02-13T19:13:34.069Z,18.53
2023-02-13T19:15:15.843Z,18.50
2023-02-13T19:17:04.246Z,17.81
2023-02-13T19:18:40.896Z,18.86
2023-02-13T19:20:17.276Z,18.92
2023-02-13T19:22:19.822Z,18.26
2023-02-13T19:23:52.363Z,17.90
2023-02-13T19:25:24.156Z,17.61
2023-02-13T19:26:56.070Z,16.20
2023-02-13T19:28:27.517Z,18.21
2023-02-13T19:30:00.801Z,18.77
2023-02-13T19:31:32.894Z,16.02
2023-02-13T19:35:01.168Z,17.73
2023-02-13T19:36:38.621Z,19.37
2023-02-13T19:38:10.522Z,19.04
2023-02-13T19:39:42.462Z,18.03
2023-02-13T19:41:32.284Z,17.44
2023-02-13T19:43:03.918Z,17.52
2023-02-13T19:44:48.180Z,15.90
2023-02-13T19:46:42.661Z,15.67
2023-02-13T19:48:37.253Z,15.40
2023-02-13T19:50:09.087Z,18.08
2023-02-13T19:51:59.549Z,17.42
2023-02-13T19:53:38.757Z,16.04
2023-02-13T19:55:15.260Z,15.13
2023-02-13T19:57:23.525Z,17.09
2023-02-13T19:58:54.853Z,16.97
2023-02-13T20:00:31.566Z,15.80
2023-02-13T20:04:22.206Z,17.00
2023-02-13T20:06:01.101Z,15.81
2023-02-13T20:07:32.676Z,17.13
2023-02-13T20:09:12.856Z,16.48
2023-02-13T20:10:44.580Z,18.75
2023-02-13T20:12:16.187Z,17.55
2023-02-13T20:13:49.343Z,16.86
2023-02-13T20:15:29.900Z,16.77